Time;durP1;ratioP1;P1;durP2;ratioP2;P2;SDS_P1;SDS_P2;PMS_P1;PMS_P2;Temp;Humidity;BMP_temperature;BMP_pressure;BME280_temperature;BME280_humidity;BME280_pressure;Samples;Min_cycle;Max_cycle;Signal;HPM_P1;HPM_P2
2023/01/23 00:02:09;;;;;;;8.63;4.90;;;;;;;10.40;93.10;95318.06;5052986;28;20504;-81
2023/01/23 00:04:36;;;;;;;7.33;6.50;;;;;;;10.27;92.82;95319.13;5052981;28;20495;-82
2023/01/23 00:07:04;;;;;;;5.93;5.30;;;;;;;10.36;92.68;95327.13;5052486;28;20449;-82
2023/01/23 00:09:31;;;;;;;11.17;6.73;;;;;;;10.36;92.78;95319.25;5052673;28;20447;-81
2023/01/23 00:11:58;;;;;;;8.43;6.03;;;;;;;10.06;94.94;95327.66;5052480;28;20485;-82
2023/01/23 00:14:25;;;;;;;11.27;8.47;;;;;;;10.10;95.16;95328.25;5052530;28;20453;-82
2023/01/23 00:16:51;;;;;;;10.83;7.27;;;;;;;10.13;95.41;95326.25;5052734;28;20454;-82
2023/01/23 00:19:19;;;;;;;8.80;7.90;;;;;;;10.00;95.60;95317.63;5052798;28;20515;-82
2023/01/23 00:21:46;;;;;;;9.00;7.33;;;;;;;10.15;95.68;95326.97;5052546;28;20461;-82
2023/01/23 00:24:14;;;;;;;9.53;5.90;;;;;;;9.88;96.06;95327.25;5052649;28;20484;-82
2023/01/23 00:26:41;;;;;;;8.67;6.40;;;;;;;9.92;96.62;95325.25;5052227;28;20452;-82
2023/01/23 00:29:08;;;;;;;7.70;6.50;;;;;;;9.88;96.85;95313.31;5052515;28;20453;-82
2023/01/23 00:31:38;;;;;;;10.43;7.03;;;;;;;9.99;95.92;95312.50;5052131;28;20481;-82
2023/01/23 00:34:08;;;;;;;9.77;7.00;;;;;;;10.14;95.07;95319.22;5052323;28;20445;-82
2023/01/23 00:36:36;;;;;;;8.67;7.63;;;;;;;10.11;95.40;95319.44;5052299;28;20457;-81
2023/01/23 00:39:06;;;;;;;7.37;5.07;;;;;;;9.81;95.72;95326.03;5052391;28;20518;-83
2023/01/23 00:41:34;;;;;;;7.93;6.33;;;;;;;9.92;95.54;95314.75;5001318;28;20532;-82
2023/01/23 00:44:01;;;;;;;6.53;5.50;;;;;;;9.91;96.17;95328.81;5051788;28;20861;-82
2023/01/23 00:46:28;;;;;;;7.70;6.40;;;;;;;10.09;95.58;95326.56;5052285;28;20449;-82
2023/01/23 00:48:55;;;;;;;8.40;6.30;;;;;;;10.15;95.34;95331.38;5052113;28;20441;-81
2023/01/23 00:51:22;;;;;;;7.43;6.60;;;;;;;10.28;94.89;95341.78;5052223;28;20488;-82
2023/01/23 00:53:48;;;;;;;12.67;7.70;;;;;;;10.37;94.78;95335.81;5016504;28;20445;-82
2023/01/23 00:56:15;;;;;;;11.57;7.10;;;;;;;10.24;94.04;95336.78;5052271;28;20846;-83
2023/01/23 00:58:44;;;;;;;8.70;7.10;;;;;;;10.41;93.37;95332.88;5052399;28;20784;-82
2023/01/23 01:01:11;;;;;;;7.33;5.77;;;;;;;10.29;93.78;95338.22;5052303;28;20724;-82
2023/01/23 01:03:38;;;;;;;11.17;6.10;;;;;;;10.48;93.91;95339.31;5033076;28;20445;-82
2023/01/23 01:06:05;;;;;;;8.33;5.97;;;;;;;10.55;92.42;95340.50;5016639;28;20491;-82
2023/01/23 01:08:32;;;;;;;12.97;6.40;;;;;;;10.66;92.43;95341.44;5051756;28;20450;-82
2023/01/23 01:10:59;;;;;;;9.03;7.13;;;;;;;10.69;92.73;95342.03;5051896;28;20490;-81
2023/01/23 01:13:26;;;;;;;9.77;6.53;;;;;;;10.74;91.96;95341.72;5052059;28;20512;-81
2023/01/23 01:15:55;;;;;;;8.00;6.30;;;;;;;10.74;91.91;95341.72;5051080;28;20453;-82
2023/01/23 01:18:22;;;;;;;6.60;5.80;;;;;;;10.71;92.00;95344.56;5051332;28;20438;-82
2023/01/23 01:20:50;;;;;;;10.90;6.10;;;;;;;10.64;92.96;95349.44;5050488;28;20450;-82
2023/01/23 01:23:17;;;;;;;9.77;6.40;;;;;;;10.64;92.67;95348.59;5050258;28;20449;-82
2023/01/23 01:25:43;;;;;;;10.60;7.53;;;;;;;10.53;93.33;95358.16;5014965;28;20999;-81
2023/01/23 01:28:10;;;;;;;6.40;5.77;;;;;;;10.44;94.24;95361.50;5050575;28;20452;-82
2023/01/23 01:30:37;;;;;;;5.83;4.50;;;;;;;10.04;96.13;95363.63;5050724;28;20449;-81
2023/01/23 01:33:05;;;;;;;5.37;3.67;;;;;;;9.85;98.21;95356.34;5050444;28;20481;-82
2023/01/23 01:35:32;;;;;;;4.03;3.73;;;;;;;9.81;98.22;95362.72;5050180;28;20453;-81
2023/01/23 01:37:59;;;;;;;5.23;4.70;;;;;;;9.68;99.70;95367.22;5049978;28;20820;-82
2023/01/23 01:40:32;;;;;;;7.33;4.83;;;;;;;9.71;100.00;95369.59;5049932;28;20461;-82
2023/01/23 01:43:01;;;;;;;6.57;4.50;;;;;;;9.69;100.00;95363.66;5050065;28;20521;-82
2023/01/23 01:46:05;;;;;;;7.50;4.73;;;;;;;9.68;100.00;95361.13;5050080;28;20437;-82
2023/01/23 01:48:36;;;;;;;5.90;5.27;;;;;;;9.61;100.00;95361.59;5050273;28;20456;-81
2023/01/23 01:51:09;;;;;;;7.20;5.07;;;;;;;9.47;100.00;95358.28;5050081;28;20773;-83
2023/01/23 01:53:37;;;;;;;7.57;5.30;;;;;;;9.52;100.00;95361.41;4999588;28;20441;-81
2023/01/23 01:56:05;;;;;;;7.10;4.90;;;;;;;9.53;100.00;95369.16;5052972;28;20452;-82
2023/01/23 01:58:32;;;;;;;6.27;4.83;;;;;;;9.26;100.00;95358.94;5055563;28;20498;-82
2023/01/23 02:00:59;;;;;;;4.27;3.93;;;;;;;9.32;100.00;95362.88;5055029;28;20835;-83
2023/01/23 02:03:26;;;;;;;6.57;3.90;;;;;;;9.30;100.00;95363.00;5055185;28;20462;-83
2023/01/23 02:05:54;;;;;;;5.57;5.03;;;;;;;9.29;100.00;95360.50;5055010;28;20502;-82
2023/01/23 02:08:27;;;;;;;10.37;4.27;;;;;;;9.18;100.00;95371.72;5054824;28;21008;-83
2023/01/23 02:10:54;;;;;;;4.67;4.07;;;;;;;9.19;100.00;95367.31;5054830;28;20514;-83
2023/01/23 02:13:24;;;;;;;4.53;4.13;;;;;;;9.10;100.00;95366.19;5055004;28;20491;-81
2023/01/23 02:15:52;;;;;;;5.13;4.63;;;;;;;9.14;100.00;95369.44;5055240;28;20448;-82
2023/01/23 02:18:20;;;;;;;7.97;5.00;;;;;;;9.14;100.00;95375.50;5055160;28;20441;-82
2023/01/23 02:20:48;;;;;;;4.73;4.20;;;;;;;8.95;100.00;95369.88;5003381;28;20960;-82
2023/01/23 02:23:22;;;;;;;6.27;5.27;;;;;;;8.93;100.00;95375.22;5054556;28;20456;-82
2023/01/23 02:25:55;;;;;;;5.20;4.70;;;;;;;8.93;100.00;95362.16;5055101;28;20884;-83
2023/01/23 02:28:23;;;;;;;5.80;4.67;;;;;;;9.05;100.00;95360.47;5054808;28;20455;-82
2023/01/23 02:30:50;;;;;;;4.57;4.17;;;;;;;8.97;100.00;95357.56;5054953;28;20443;-82
2023/01/23 02:33:53;;;;;;;4.87;4.33;;;;;;;9.00;100.00;95363.41;5054429;28;20479;-82
2023/01/23 02:36:23;;;;;;;7.50;4.50;;;;;;;8.90;100.00;95366.75;5054430;28;20449;-82
2023/01/23 02:38:59;;;;;;;5.20;4.50;;;;;;;8.96;100.00;95366.31;5054404;28;20448;-82
2023/01/23 02:41:29;;;;;;;4.90;4.00;;;;;;;9.03;100.00;95362.34;5054453;28;20447;-82
2023/01/23 02:43:58;;;;;;;4.60;4.20;;;;;;;8.98;100.00;95365.31;5054276;28;20441;-82
2023/01/23 02:46:26;;;;;;;6.40;4.20;;;;;;;9.08;100.00;95365.47;5054315;28;20455;-82
2023/01/23 02:48:54;;;;;;;6.03;4.43;;;;;;;9.01;100.00;95369.47;5054694;28;20456;-83
2023/01/23 02:51:21;;;;;;;7.37;4.97;;;;;;;9.00;100.00;95373.03;5054328;28;20506;-82
2023/01/23 02:53:48;;;;;;;5.27;4.77;;;;;;;9.10;100.00;95358.34;5054471;28;20466;-81
2023/01/23 02:56:16;;;;;;;7.00;4.63;;;;;;;9.23;100.00;95363.53;5054333;28;20950;-82
2023/01/23 03:01:30;;;;;;;3.50;3.20;;;;;;;8.94;100.00;95369.06;5054259;28;20435;-81
2023/01/23 03:04:02;;;;;;;5.10;4.53;;;;;;;9.00;100.00;95368.66;5053917;28;20459;-82
2023/01/23 03:06:34;;;;;;;4.10;3.70;;;;;;;8.85;100.00;95368.88;5053263;28;20998;-82
2023/01/23 03:09:08;;;;;;;4.20;3.80;;;;;;;8.93;100.00;95377.00;5053325;28;20787;-82
2023/01/23 03:11:37;;;;;;;7.87;4.33;;;;;;;8.82;100.00;95369.09;5020988;28;20444;-82
2023/01/23 03:14:08;;;;;;;4.60;4.10;;;;;;;8.91;100.00;95364.03;5053932;28;20512;-83
2023/01/23 03:16:35;;;;;;;4.30;3.90;;;;;;;8.91;100.00;95368.44;5053938;28;20872;-83
2023/01/23 03:19:04;;;;;;;4.00;3.60;;;;;;;8.89;100.00;95370.31;5053936;28;20452;-82
2023/01/23 03:21:32;;;;;;;3.83;3.53;;;;;;;8.77;100.00;95368.59;5054081;28;20469;-83
2023/01/23 03:24:00;;;;;;;4.90;3.80;;;;;;;8.85;100.00;95363.63;5002117;28;20467;-84
2023/01/23 03:26:26;;;;;;;4.77;3.90;;;;;;;8.80;100.00;95371.81;5053899;28;20878;-83
2023/01/23 03:31:40;;;;;;;3.93;3.63;;;;;;;8.71;100.00;95355.94;5053591;28;20540;-82
2023/01/23 03:34:07;;;;;;;5.20;4.33;;;;;;;8.73;100.00;95352.25;5053461;28;20946;-82
2023/01/23 03:36:37;;;;;;;8.17;5.03;;;;;;;8.73;100.00;95360.13;5053512;28;20434;-82
2023/01/23 03:41:50;;;;;;;4.87;4.47;;;;;;;8.59;100.00;95355.84;5053400;28;20439;-82
2023/01/23 03:44:19;;;;;;;5.63;4.73;;;;;;;8.62;100.00;95357.41;5053106;28;20957;-80
2023/01/23 03:46:48;;;;;;;6.17;4.13;;;;;;;8.60;100.00;95373.19;5053348;28;20450;-81
2023/01/23 03:49:15;;;;;;;8.20;4.30;;;;;;;8.54;100.00;95364.94;5053326;28;20454;-82
2023/01/23 03:51:42;;;;;;;9.50;5.10;;;;;;;8.54;100.00;95368.41;5052988;28;20938;-84
2023/01/23 03:54:09;;;;;;;6.33;4.63;;;;;;;8.47;100.00;95369.78;5001587;28;20977;-83
2023/01/23 03:56:36;;;;;;;8.20;5.00;;;;;;;8.51;100.00;95373.84;5052854;28;20837;-82
2023/01/23 03:59:03;;;;;;;5.00;4.27;;;;;;;8.44;100.00;95367.38;5053274;28;20457;-81
2023/01/23 04:01:30;;;;;;;5.37;4.70;;;;;;;8.41;100.00;95367.59;5051856;28;20467;-81
2023/01/23 04:03:58;;;;;;;7.57;4.57;;;;;;;8.46;100.00;95381.19;5037296;28;20449;-83
2023/01/23 04:06:24;;;;;;;7.00;5.17;;;;;;;8.39;100.00;95379.94;4997887;28;21006;-82
2023/01/23 04:08:51;;;;;;;9.00;6.83;;;;;;;8.41;100.00;95383.28;5033024;28;20444;-81
2023/01/23 04:11:18;;;;;;;5.97;5.13;;;;;;;8.36;100.00;95380.09;4998043;28;20480;-83
2023/01/23 04:13:46;;;;;;;5.57;4.90;;;;;;;8.32;100.00;95381.22;5032870;28;20485;-82
2023/01/23 04:16:13;;;;;;;4.47;4.07;;;;;;;8.26;100.00;95379.03;4998100;28;20531;-82
2023/01/23 04:18:40;;;;;;;6.30;5.27;;;;;;;8.39;100.00;95390.38;4981402;28;20875;-82
2023/01/23 04:21:08;;;;;;;11.33;5.30;;;;;;;8.48;100.00;95396.75;5033033;28;20448;-82
2023/01/23 04:23:35;;;;;;;8.10;4.80;;;;;;;8.37;100.00;95380.00;5032598;28;20482;-82
2023/01/23 04:26:02;;;;;;;5.03;4.53;;;;;;;8.47;100.00;95395.91;5033105;28;20982;-82
2023/01/23 04:28:29;;;;;;;7.10;4.40;;;;;;;8.56;100.00;95403.13;5032433;28;20503;-81
2023/01/23 04:30:56;;;;;;;4.70;3.30;;;;;;;8.59;100.00;95402.91;5032775;28;20463;-82
2023/01/23 04:33:23;;;;;;;3.30;3.00;;;;;;;8.55;100.00;95398.00;5032380;28;20491;-82
2023/01/23 04:35:51;;;;;;;2.63;2.43;;;;;;;8.48;100.00;95402.81;5032434;28;20579;-81
2023/01/23 04:38:19;;;;;;;4.90;2.70;;;;;;;8.48;100.00;95408.06;5032585;28;20444;-82
2023/01/23 04:40:48;;;;;;;3.40;3.10;;;;;;;8.53;100.00;95405.97;5032320;28;20936;-82
2023/01/23 04:43:14;;;;;;;4.80;3.93;;;;;;;8.52;100.00;95404.28;5032672;28;20478;-86
2023/01/23 04:45:42;;;;;;;5.00;3.40;;;;;;;8.55;100.00;95403.22;5032262;28;20970;-82
2023/01/23 04:48:09;;;;;;;4.70;3.30;;;;;;;8.47;100.00;95406.38;5032358;28;20463;-83
2023/01/23 04:50:36;;;;;;;6.57;3.93;;;;;;;8.37;100.00;95406.16;5032437;28;20926;-83
2023/01/23 04:53:03;;;;;;;4.73;3.90;;;;;;;8.36;100.00;95403.63;4981452;28;20494;-84
2023/01/23 04:55:32;;;;;;;5.77;4.67;;;;;;;8.43;100.00;95407.53;5032338;28;20453;-82
2023/01/23 04:57:59;;;;;;;5.63;4.60;;;;;;;8.40;100.00;95401.69;4981721;28;20455;-82
2023/01/23 05:00:27;;;;;;;4.57;4.13;;;;;;;8.54;100.00;95412.03;5032491;28;20448;-82
2023/01/23 05:02:55;;;;;;;6.30;4.87;;;;;;;8.74;100.00;95418.50;5031919;28;20962;-81
2023/01/23 05:05:22;;;;;;;5.83;4.30;;;;;;;8.85;100.00;95416.81;5032256;28;20518;-82
2023/01/23 05:07:49;;;;;;;5.23;4.00;;;;;;;8.60;100.00;95411.59;5031988;28;20874;-83
2023/01/23 05:10:17;;;;;;;4.77;4.27;;;;;;;8.51;100.00;95413.06;5032019;28;20445;-82
2023/01/23 05:12:45;;;;;;;3.47;3.17;;;;;;;8.46;100.00;95417.78;5032168;28;20487;-85
2023/01/23 05:15:12;;;;;;;4.50;3.87;;;;;;;8.51;100.00;95418.31;5031925;28;20461;-82
2023/01/23 05:17:39;;;;;;;6.10;4.40;;;;;;;8.49;100.00;95420.19;5032013;28;20449;-82
2023/01/23 05:20:07;;;;;;;4.57;4.10;;;;;;;8.47;100.00;95424.69;5032321;28;20452;-82
2023/01/23 05:22:34;;;;;;;5.37;4.40;;;;;;;8.46;100.00;95432.66;4981028;28;20443;-82
2023/01/23 05:25:01;;;;;;;4.80;3.40;;;;;;;8.47;100.00;95435.16;5033097;28;20484;-86
2023/01/23 05:27:28;;;;;;;5.10;3.50;;;;;;;8.49;100.00;95430.66;5033517;28;20452;-82
2023/01/23 05:29:56;;;;;;;4.60;3.83;;;;;;;8.52;100.00;95429.59;5033233;28;20842;-82
2023/01/23 05:32:22;;;;;;;3.30;3.00;;;;;;;8.54;100.00;95428.56;5036798;28;20448;-83
2023/01/23 05:34:49;;;;;;;3.50;3.20;;;;;;;8.54;100.00;95433.78;5037148;28;20456;-82
2023/01/23 05:37:16;;;;;;;3.87;3.43;;;;;;;8.58;100.00;95427.41;5002251;28;20468;-82
2023/01/23 05:39:43;;;;;;;3.10;2.90;;;;;;;8.66;100.00;95430.31;5002294;28;20502;-83
2023/01/23 05:42:09;;;;;;;3.00;2.70;;;;;;;8.47;100.00;95432.53;5036865;28;20452;-82
2023/01/23 05:44:36;;;;;;;2.90;2.43;;;;;;;8.52;100.00;95433.06;5037037;28;20851;-81
2023/01/23 05:47:04;;;;;;;3.33;2.70;;;;;;;8.58;100.00;95443.09;5036743;28;20934;-83
2023/01/23 05:49:31;;;;;;;2.77;2.57;;;;;;;8.57;100.00;95451.88;5045472;28;20483;-84
2023/01/23 05:51:58;;;;;;;3.93;3.50;;;;;;;8.60;100.00;95448.22;5036901;28;20507;-86
2023/01/23 05:54:25;;;;;;;2.87;2.67;;;;;;;8.57;100.00;95456.28;5037057;28;20530;-86
2023/01/23 05:56:51;;;;;;;4.80;3.50;;;;;;;8.52;100.00;95451.38;5037086;28;20456;-90
2023/01/23 05:59:18;;;;;;;3.60;2.83;;;;;;;8.56;100.00;95462.44;5037133;28;20437;-83
2023/01/23 06:01:45;;;;;;;3.40;2.67;;;;;;;8.54;100.00;95473.03;5037569;28;20441;-88
2023/01/23 06:04:15;;;;;;;3.43;3.17;;;;;;;8.46;100.00;95457.00;5038454;28;20871;-87
2023/01/23 06:06:42;;;;;;;4.33;2.50;;;;;;;8.49;100.00;95476.88;5036911;28;20451;-84
2023/01/23 06:09:09;;;;;;;3.47;2.37;;;;;;;8.52;100.00;95479.28;5036180;28;20451;-85
2023/01/23 06:11:36;;;;;;;3.30;3.00;;;;;;;8.45;100.00;95481.50;5046603;28;20453;-88
2023/01/23 06:14:03;;;;;;;2.73;2.50;;;;;;;8.54;100.00;95486.09;5056935;28;20483;-89
2023/01/23 06:16:29;;;;;;;5.40;3.67;;;;;;;8.54;100.00;95483.47;5058044;28;20836;-90
2023/01/23 06:18:56;;;;;;;2.50;2.30;;;;;;;8.52;100.00;95487.97;5056864;28;20455;-90
2023/01/23 06:21:25;;;;;;;6.10;3.80;;;;;;;8.50;100.00;95487.25;5054036;28;20457;-84
2023/01/23 06:23:51;;;;;;;6.23;2.90;;;;;;;8.46;100.00;95496.25;5044492;28;20455;-87
2023/01/23 06:26:18;;;;;;;6.50;3.80;;;;;;;8.53;100.00;95507.13;5056667;28;20431;-88
2023/01/23 06:28:45;;;;;;;3.60;2.87;;;;;;;8.47;100.00;95499.69;5056294;28;20446;-81
2023/01/23 06:31:12;;;;;;;3.67;3.30;;;;;;;8.37;100.00;95508.13;5056152;28;20440;-81
2023/01/23 06:33:39;;;;;;;3.73;3.43;;;;;;;8.34;100.00;95502.28;5055780;28;20501;-82
2023/01/23 06:36:06;;;;;;;6.13;5.20;;;;;;;8.45;100.00;95512.03;5056171;28;20452;-82
2023/01/23 06:38:35;;;;;;;4.60;4.13;;;;;;;8.43;100.00;95520.00;5055690;28;20442;-81
2023/01/23 06:41:01;;;;;;;4.70;3.87;;;;;;;8.46;100.00;95518.94;5055730;28;20898;-86
2023/01/23 06:43:28;;;;;;;6.10;4.43;;;;;;;8.49;100.00;95523.97;5054923;28;20467;-83
2023/01/23 06:45:55;;;;;;;5.37;4.80;;;;;;;8.47;100.00;95526.69;5004532;28;20451;-86
2023/01/23 06:48:22;;;;;;;12.47;5.10;;;;;;;8.29;100.00;95507.78;5056022;28;20900;-82
2023/01/23 06:50:49;;;;;;;5.27;4.30;;;;;;;8.13;100.00;95511.50;5055702;28;20444;-82
2023/01/23 06:53:18;;;;;;;5.90;4.90;;;;;;;8.12;100.00;95513.28;5054655;28;20482;-82
2023/01/23 06:55:47;;;;;;;8.70;6.37;;;;;;;8.08;100.00;95520.47;5035498;28;20446;-83
2023/01/23 06:58:13;;;;;;;8.45;6.20;;;;;;;8.06;100.00;95527.56;5035589;28;20441;-83
2023/01/23 07:00:43;;;;;;;9.13;6.90;;;;;;;8.03;100.00;95519.94;5055708;28;20209;-82
2023/01/23 07:03:11;;;;;;;9.60;7.60;;;;;;;8.07;100.00;95523.19;5055370;28;20443;-81
2023/01/23 07:05:39;;;;;;;10.53;7.40;;;;;;;8.11;100.00;95545.59;5055445;28;20432;-81
2023/01/23 07:08:07;;;;;;;6.57;5.93;;;;;;;7.98;100.00;95545.53;5054754;28;20812;-81
2023/01/23 07:10:34;;;;;;;8.23;6.23;;;;;;;8.00;100.00;95550.66;5055030;28;20459;-81
2023/01/23 07:13:02;;;;;;;7.13;6.43;;;;;;;7.97;100.00;95546.47;5055215;28;20485;-82
2023/01/23 07:15:29;;;;;;;9.03;5.93;;;;;;;8.04;100.00;95555.59;5055636;28;20432;-81
2023/01/23 07:17:55;;;;;;;8.27;6.50;;;;;;;7.96;100.00;95557.84;5054852;28;20442;-82
2023/01/23 07:20:26;;;;;;;12.40;7.60;;;;;;;8.06;100.00;95558.94;5055017;28;20435;-82
2023/01/23 07:22:53;;;;;;;12.97;8.40;;;;;;;7.93;100.00;95562.44;5054924;28;20435;-81
2023/01/23 07:25:19;;;;;;;23.00;8.77;;;;;;;7.95;100.00;95566.63;5035320;28;20494;-82
2023/01/23 07:27:46;;;;;;;13.23;7.67;;;;;;;7.94;100.00;95570.19;5016648;28;20439;-81
2023/01/23 07:30:15;;;;;;;11.07;7.60;;;;;;;8.02;100.00;95578.38;5033901;28;20453;-82
2023/01/23 07:32:41;;;;;;;14.83;8.13;;;;;;;7.99;100.00;95577.72;5033839;28;20456;-82
2023/01/23 07:35:09;;;;;;;15.73;9.37;;;;;;;8.03;100.00;95580.03;5033604;28;21013;-82
2023/01/23 07:37:36;;;;;;;12.33;8.40;;;;;;;7.99;100.00;95590.78;5033720;28;20441;-82
2023/01/23 07:40:04;;;;;;;16.90;9.93;;;;;;;7.92;100.00;95581.66;5033244;28;20871;-81
2023/01/23 07:42:30;;;;;;;11.33;6.73;;;;;;;7.87;100.00;95594.19;5033787;28;20459;-82
2023/01/23 07:44:57;;;;;;;11.03;9.23;;;;;;;7.82;100.00;95596.25;5033759;28;20439;-81
2023/01/23 07:47:25;;;;;;;11.10;9.33;;;;;;;7.72;100.00;95588.13;5033826;28;20505;-81
2023/01/23 07:49:52;;;;;;;12.13;7.50;;;;;;;7.70;100.00;95587.41;5033852;28;20443;-82
2023/01/23 07:52:19;;;;;;;16.20;10.87;;;;;;;7.71;100.00;95599.53;5033774;28;20447;-82
2023/01/23 07:54:46;;;;;;;11.10;6.43;;;;;;;7.75;100.00;95596.63;5032635;28;20487;-82
2023/01/23 07:57:12;;;;;;;9.40;6.23;;;;;;;7.73;100.00;95588.03;5033479;28;20814;-82
2023/01/23 07:59:39;;;;;;;13.67;7.27;;;;;;;7.75;100.00;95601.00;5033370;28;20444;-81
2023/01/23 08:02:06;;;;;;;6.00;5.40;;;;;;;7.77;100.00;95604.34;5033191;28;20442;-80
2023/01/23 08:04:34;;;;;;;9.07;6.17;;;;;;;7.65;100.00;95592.91;5033240;28;20486;-82
2023/01/23 08:07:01;;;;;;;17.20;6.47;;;;;;;7.76;100.00;95600.06;5033365;28;20451;-82
2023/01/23 08:09:28;;;;;;;9.50;6.27;;;;;;;7.63;100.00;95602.63;5033181;28;20800;-82
2023/01/23 08:11:55;;;;;;;8.53;5.10;;;;;;;7.60;100.00;95610.66;5033005;28;20448;-81
2023/01/23 08:14:22;;;;;;;8.27;4.97;;;;;;;7.54;100.00;95618.88;5032966;28;20487;-81
2023/01/23 08:16:50;;;;;;;5.80;5.20;;;;;;;7.59;100.00;95610.75;5033218;28;20451;-80
2023/01/23 08:19:17;;;;;;;10.20;7.10;;;;;;;7.61;100.00;95616.72;5032911;28;20498;-82
2023/01/23 08:21:46;;;;;;;9.00;6.53;;;;;;;7.75;100.00;95619.28;5032710;28;20444;-82
2023/01/23 08:24:13;;;;;;;6.87;5.00;;;;;;;7.80;100.00;95629.44;5032612;28;20460;-82
2023/01/23 08:26:40;;;;;;;9.50;6.30;;;;;;;7.87;100.00;95629.00;5033029;28;20439;-81
2023/01/23 08:29:07;;;;;;;7.07;5.17;;;;;;;7.76;100.00;95628.81;5032797;28;20443;-80
2023/01/23 08:31:36;;;;;;;5.33;4.10;;;;;;;7.64;100.00;95635.63;5033137;28;20452;-82
2023/01/23 08:34:04;;;;;;;7.30;6.23;;;;;;;7.56;100.00;95642.28;5014678;28;20989;-81
2023/01/23 08:36:31;;;;;;;9.63;6.40;;;;;;;7.62;100.00;95642.72;5032885;28;20455;-81
2023/01/23 08:38:59;;;;;;;7.70;5.23;;;;;;;7.65;100.00;95645.16;5032641;28;20448;-81
2023/01/23 08:41:30;;;;;;;9.23;8.27;;;;;;;7.62;100.00;95636.66;5033143;28;20443;-84
2023/01/23 08:44:00;;;;;;;9.00;6.10;;;;;;;7.62;100.00;95639.28;5033208;28;20478;-85
2023/01/23 08:46:27;;;;;;;6.40;5.80;;;;;;;7.61;100.00;95645.44;5033570;28;20797;-86
2023/01/23 08:48:54;;;;;;;9.17;5.40;;;;;;;7.68;100.00;95649.34;5032728;28;20455;-86
2023/01/23 08:51:21;;;;;;;8.53;5.23;;;;;;;7.75;100.00;95643.63;5033235;28;20456;-85
2023/01/23 08:53:51;;;;;;;6.07;5.03;;;;;;;7.81;100.00;95657.28;5032790;28;20497;-86
2023/01/23 08:56:21;;;;;;;7.73;4.70;;;;;;;7.91;100.00;95664.44;5032799;28;20448;-84
2023/01/23 08:58:48;;;;;;;4.30;3.50;;;;;;;7.69;100.00;95671.91;5033272;28;20451;-84
2023/01/23 09:01:19;;;;;;;6.70;6.00;;;;;;;7.65;100.00;95662.59;5032351;28;20445;-86
2023/01/23 09:03:47;;;;;;;8.03;7.23;;;;;;;7.70;100.00;95660.53;5032723;28;20454;-86
2023/01/23 09:06:16;;;;;;;12.13;6.60;;;;;;;7.90;100.00;95667.16;5033947;28;20463;-86
2023/01/23 09:08:43;;;;;;;5.93;4.80;;;;;;;7.88;100.00;95663.81;5033073;28;20435;-86
2023/01/23 09:11:12;;;;;;;5.90;4.30;;;;;;;7.99;100.00;95659.56;5033347;28;20814;-87
2023/01/23 09:13:41;;;;;;;5.60;4.80;;;;;;;8.07;100.00;95654.69;5033585;28;20455;-86
2023/01/23 09:16:09;;;;;;;7.87;4.73;;;;;;;8.10;100.00;95655.47;5033201;28;20464;-86
2023/01/23 09:18:39;;;;;;;5.37;3.03;;;;;;;7.85;100.00;95670.06;5032852;28;20448;-86
2023/01/23 09:21:07;;;;;;;12.83;7.70;;;;;;;7.80;100.00;95660.81;5033358;28;20443;-85
2023/01/23 09:23:35;;;;;;;6.17;4.80;;;;;;;7.76;100.00;95668.84;5033108;28;20456;-87
2023/01/23 09:26:06;;;;;;;5.67;5.00;;;;;;;7.67;100.00;95658.13;5032417;28;20549;-87
2023/01/23 09:28:33;;;;;;;4.73;3.90;;;;;;;7.59;100.00;95657.75;5033193;28;20444;-86
2023/01/23 09:31:06;;;;;;;4.50;4.13;;;;;;;7.56;100.00;95660.56;5033286;28;20458;-84
2023/01/23 09:33:33;;;;;;;5.90;5.10;;;;;;;7.52;100.00;95659.91;5033404;28;20551;-86
2023/01/23 09:36:00;;;;;;;6.60;5.53;;;;;;;7.58;100.00;95659.53;5033449;28;20455;-85
2023/01/23 09:38:27;;;;;;;6.50;5.90;;;;;;;7.57;100.00;95649.16;5032908;28;20443;-85
2023/01/23 09:40:57;;;;;;;10.33;8.40;;;;;;;7.58;100.00;95645.63;5032101;28;20506;-85
2023/01/23 09:43:28;;;;;;;9.17;7.07;;;;;;;7.54;100.00;95644.13;5032165;28;20459;-86
2023/01/23 09:46:02;;;;;;;5.50;4.43;;;;;;;7.60;100.00;95641.16;5032534;28;20471;-85
2023/01/23 09:48:39;;;;;;;5.97;5.47;;;;;;;7.51;100.00;95633.84;5032071;28;20873;-85
2023/01/23 09:51:14;;;;;;;8.57;5.17;;;;;;;7.40;100.00;95632.75;5032356;28;20451;-86
2023/01/23 09:53:41;;;;;;;6.80;6.00;;;;;;;7.37;100.00;95629.47;5032451;28;20439;-88
2023/01/23 09:56:20;;;;;;;13.00;7.43;;;;;;;7.33;100.00;95622.78;5032600;28;20872;-87
2023/01/23 09:58:58;;;;;;;7.87;7.07;;;;;;;7.32;100.00;95629.75;5032735;28;20485;-85
2023/01/23 10:01:28;;;;;;;8.23;6.73;;;;;;;7.37;100.00;95617.25;5032378;28;20546;-86
2023/01/23 10:03:57;;;;;;;6.10;5.53;;;;;;;7.43;100.00;95616.88;5032169;28;20467;-86
2023/01/23 10:06:29;;;;;;;7.70;5.87;;;;;;;7.34;100.00;95616.63;5032759;28;20455;-86
2023/01/23 10:09:19;;;;;;;5.13;4.63;;;;;;;7.26;100.00;95619.69;4982303;28;20876;-86
2023/01/23 10:11:59;;;;;;;11.50;8.90;;;;;;;7.33;100.00;95610.56;5032742;28;20464;-84
2023/01/23 10:14:52;;;;;;;6.83;4.47;;;;;;;7.39;100.00;95612.78;5032068;28;20565;-85
2023/01/23 10:17:25;;;;;;;5.40;4.87;;;;;;;7.31;100.00;95616.81;4974045;28;21090;-86
2023/01/23 10:20:13;;;;;;;6.83;4.20;;;;;;;7.25;100.00;95611.97;4975657;28;20430;-86
2023/01/23 10:22:47;;;;;;;8.73;7.83;;;;;;;7.39;100.00;95599.72;4975398;28;20446;-85
2023/01/23 10:28:39;;;;;;;11.50;6.23;;;;;;;7.58;100.00;95615.13;4974639;28;20464;-85
2023/01/23 10:31:15;;;;;;;8.30;6.80;;;;;;;7.62;100.00;95615.78;4975330;28;20438;-85
2023/01/23 10:33:49;;;;;;;10.57;7.83;;;;;;;7.55;100.00;95609.25;4975953;28;20843;-85
2023/01/23 10:36:23;;;;;;;10.55;7.40;;;;;;;7.61;100.00;95612.31;4974658;28;20450;-85
2023/01/23 10:38:59;;;;;;;11.43;8.90;;;;;;;7.49;100.00;95604.38;4975204;28;20201;-84
2023/01/23 10:41:26;;;;;;;9.77;8.10;;;;;;;7.50;100.00;95616.50;4974799;28;20446;-84
2023/01/23 10:43:55;;;;;;;12.70;9.77;;;;;;;7.50;100.00;95611.28;4958887;28;20452;-83
2023/01/23 10:46:29;;;;;;;12.03;9.80;;;;;;;7.61;100.00;95611.47;4974835;28;20453;-84
2023/01/23 10:48:56;;;;;;;10.17;7.23;;;;;;;7.63;100.00;95613.06;4975010;28;20533;-84
2023/01/23 10:51:33;;;;;;;11.90;9.43;;;;;;;7.59;100.00;95606.34;4974651;28;20466;-84
2023/01/23 10:54:17;;;;;;;10.13;6.80;;;;;;;7.68;100.00;95610.16;4995681;28;20439;-84
2023/01/23 10:56:53;;;;;;;10.20;8.60;;;;;;;7.59;100.00;95610.75;4994403;28;20457;-84
2023/01/23 10:59:24;;;;;;;9.90;8.90;;;;;;;7.49;100.00;95602.59;4962813;28;20445;-84
2023/01/23 11:05:36;;;;;;;16.90;10.53;;;;;;;7.60;100.00;95604.59;4993408;28;20423;-84
2023/01/23 11:08:21;;;;;;;10.57;9.47;;;;;;;7.67;100.00;95604.09;4992571;28;20869;-84
2023/01/23 11:10:48;;;;;;;10.50;8.10;;;;;;;7.55;100.00;95606.66;4992501;28;20456;-84
2023/01/23 11:13:26;;;;;;;15.13;9.87;;;;;;;7.71;100.00;95609.97;4992621;28;20449;-84
2023/01/23 11:15:53;;;;;;;13.00;9.03;;;;;;;7.70;100.00;95609.13;4992555;28;20504;-84
2023/01/23 11:18:32;;;;;;;8.70;7.40;;;;;;;7.73;100.00;95613.31;4992736;28;20449;-85
2023/01/23 11:20:59;;;;;;;15.70;9.67;;;;;;;7.55;100.00;95610.09;4992193;28;20485;-85
2023/01/23 11:23:29;;;;;;;9.53;8.57;;;;;;;7.59;100.00;95608.13;4992380;28;20450;-85
2023/01/23 11:25:56;;;;;;;8.43;7.13;;;;;;;7.68;100.00;95608.41;4992295;28;20486;-84
2023/01/23 11:28:26;;;;;;;13.00;9.43;;;;;;;7.58;100.00;95609.06;4958958;28;20438;-84
2023/01/23 11:30:58;;;;;;;12.00;9.40;;;;;;;7.71;100.00;95602.13;4992340;28;20537;-84
2023/01/23 11:33:40;;;;;;;14.00;9.67;;;;;;;7.81;100.00;95605.88;4998176;28;20839;-84
2023/01/23 11:36:24;;;;;;;10.77;7.30;;;;;;;7.72;100.00;95603.81;5014306;28;20481;-84
2023/01/23 11:38:58;;;;;;;12.03;7.53;;;;;;;7.54;100.00;95612.81;5014447;28;20449;-85
2023/01/23 11:41:29;;;;;;;8.47;6.37;;;;;;;7.51;100.00;95608.56;5014359;28;20454;-84
2023/01/23 11:43:56;;;;;;;14.13;11.23;;;;;;;7.53;100.00;95606.75;5013787;28;20832;-84
2023/01/23 11:46:48;;;;;;;14.17;11.20;;;;;;;7.38;100.00;95600.66;5013758;28;20460;-84
2023/01/23 11:49:33;;;;;;;9.70;8.70;;;;;;;7.30;100.00;95609.91;5013818;28;20467;-85
2023/01/23 11:52:19;;;;;;;9.20;7.37;;;;;;;7.30;100.00;95608.13;5014285;28;20440;-85
2023/01/23 11:55:13;;;;;;;11.07;8.33;;;;;;;7.33;100.00;95614.94;5013555;28;20495;-85
2023/01/23 11:57:57;;;;;;;34.23;30.70;;;;;;;7.40;100.00;95611.84;4996098;28;20447;-84